createdAt,value
2022-08-03T00:23:52.462Z,26.20
2022-08-03T00:29:59.642Z,26.23
2022-08-03T00:35:42.628Z,26.23
2022-08-03T00:48:02.887Z,26.14
2022-08-03T00:59:52.088Z,26.05
2022-08-03T01:04:53.334Z,26.03
2022-08-03T01:10:02.385Z,26.02
2022-08-03T01:15:12.041Z,25.99
2022-08-03T01:20:15.934Z,25.93
2022-08-03T01:25:42.203Z,25.91
2022-08-03T01:30:47.601Z,25.83
2022-08-03T01:35:52.110Z,25.76
2022-08-03T01:40:54.968Z,25.66
2022-08-03T01:45:57.744Z,25.57
2022-08-03T01:50:58.146Z,25.57
2022-08-03T01:55:59.219Z,25.59
2022-08-03T02:01:02.541Z,25.55
2022-08-03T02:06:59.616Z,25.54
2022-08-03T02:11:22.134Z,25.56
2022-08-03T02:16:24.879Z,25.60
2022-08-03T02:21:57.356Z,25.64
2022-08-03T02:26:45.690Z,25.65
2022-08-03T02:31:48.462Z,25.69
2022-08-03T02:36:51.062Z,25.80
2022-08-03T02:42:02.352Z,25.93
2022-08-03T02:47:09.757Z,26.10
2022-08-03T02:52:13.226Z,26.19
2022-08-03T02:57:16.591Z,26.21
2022-08-03T03:02:19.486Z,26.10
2022-08-03T03:07:19.473Z,26.03
2022-08-03T03:12:19.252Z,25.93
2022-08-03T03:17:21.094Z,25.91
2022-08-03T03:22:24.376Z,26.03
2022-08-03T03:27:24.244Z,26.13
2022-08-03T03:32:27.738Z,26.21
2022-08-03T03:37:28.324Z,26.30
2022-08-03T03:42:28.271Z,26.31
2022-08-03T03:47:32.724Z,26.27
2022-08-03T03:52:33.373Z,26.31
2022-08-03T03:57:33.352Z,26.30
2022-08-03T04:02:34.566Z,26.19
2022-08-03T04:08:00.307Z,26.19
2022-08-03T04:13:02.003Z,26.17
2022-08-03T04:18:05.087Z,26.18
2022-08-03T04:23:13.522Z,26.26
2022-08-03T04:28:30.564Z,26.29
2022-08-03T04:33:34.901Z,26.39
2022-08-03T04:38:38.518Z,26.39
2022-08-03T04:43:40.832Z,26.49
2022-08-03T04:48:44.574Z,26.51
2022-08-03T04:53:44.618Z,26.74
2022-08-03T04:58:43.502Z,26.77
2022-08-03T05:03:43.892Z,26.81
2022-08-03T05:08:46.809Z,26.84
2022-08-03T05:13:46.694Z,26.99
2022-08-03T05:18:47.315Z,27.08
2022-08-03T05:23:46.191Z,27.20
2022-08-03T05:28:50.880Z,27.15
2022-08-03T05:33:52.019Z,27.27
2022-08-03T05:38:50.880Z,27.17
2022-08-03T05:43:49.792Z,27.12
2022-08-03T05:48:48.795Z,27.19
2022-08-03T05:53:48.979Z,27.32
2022-08-03T05:58:48.332Z,27.41
2022-08-03T06:03:47.954Z,27.51
2022-08-03T06:08:49.006Z,27.53
2022-08-03T06:13:48.223Z,27.52
2022-08-03T06:18:47.362Z,27.54
2022-08-03T06:23:52.653Z,27.59
2022-08-03T06:28:54.961Z,27.61
2022-08-03T06:34:33.714Z,27.70
2022-08-03T06:39:13.471Z,27.82
2022-08-03T06:44:14.423Z,27.85
2022-08-03T06:49:13.775Z,27.80
2022-08-03T06:54:12.867Z,27.91
2022-08-03T07:00:10.700Z,28.05
2022-08-03T07:04:31.921Z,28.11
2022-08-03T07:09:30.683Z,28.26
2022-08-03T07:14:29.779Z,28.29
2022-08-03T07:19:31.412Z,28.28
2022-08-03T07:24:30.414Z,28.38
2022-08-03T07:29:29.491Z,28.39
2022-08-03T07:34:35.161Z,28.64
2022-08-03T07:39:34.060Z,28.81
2022-08-03T07:44:32.916Z,28.90
2022-08-03T07:49:31.803Z,28.95
2022-08-03T07:54:32.200Z,29.04
2022-08-03T07:59:56.609Z,29.03
2022-08-03T08:04:52.386Z,29.26
2022-08-03T08:10:01.270Z,29.31
2022-08-03T08:15:00.456Z,29.39
2022-08-03T08:20:02.038Z,29.34
2022-08-03T08:25:02.530Z,29.77
2022-08-03T08:30:10.213Z,30.08
2022-08-03T08:35:11.943Z,29.90
2022-08-03T08:40:13.959Z,30.23
2022-08-03T08:45:15.079Z,30.88
2022-08-03T08:50:27.256Z,31.58
2022-08-03T08:55:56.610Z,32.38
2022-08-03T09:00:59.213Z,33.85
2022-08-03T09:05:58.636Z,35.06
2022-08-03T09:10:59.203Z,36.25
2022-08-03T09:16:12.559Z,37.32
2022-08-03T09:21:30.645Z,38.10
2022-08-03T09:26:33.463Z,39.18
2022-08-03T09:31:34.854Z,39.58
2022-08-03T09:36:38.395Z,40.07
2022-08-03T09:41:40.065Z,40.52
2022-08-03T09:46:52.762Z,41.00
2022-08-03T09:52:32.191Z,41.66
2022-08-03T09:57:22.377Z,42.53
2022-08-03T10:02:27.940Z,43.33
2022-08-03T10:07:27.781Z,43.75
2022-08-03T10:12:28.896Z,43.88
2022-08-03T10:17:27.771Z,43.29
2022-08-03T10:22:30.300Z,43.25
2022-08-03T10:27:38.086Z,42.80
2022-08-03T10:32:51.221Z,43.79
2022-08-03T10:37:58.847Z,43.60
2022-08-03T10:43:04.879Z,44.26
2022-08-03T10:48:04.403Z,45.21
2022-08-03T10:53:06.859Z,46.15
2022-08-03T10:58:11.157Z,46.21
2022-08-03T11:03:19.345Z,45.99
2022-08-03T11:08:23.610Z,46.01
2022-08-03T11:13:25.826Z,46.27
2022-08-03T11:18:27.907Z,46.59
2022-08-03T11:24:05.276Z,46.65
2022-08-03T11:30:20.813Z,45.76
2022-08-03T11:41:43.695Z,47.01
2022-08-03T11:46:46.181Z,46.33
2022-08-03T11:51:45.995Z,47.51
2022-08-03T11:56:46.675Z,47.50
2022-08-03T12:01:47.127Z,47.29
2022-08-03T12:07:01.874Z,45.59
2022-08-03T12:12:01.373Z,44.90
2022-08-03T12:17:01.960Z,44.05
2022-08-03T12:22:02.054Z,42.98
2022-08-03T12:27:00.865Z,42.37
2022-08-03T12:32:08.359Z,43.21
2022-08-03T12:37:20.262Z,44.39
2022-08-03T12:42:21.686Z,45.62
2022-08-03T12:47:22.094Z,46.26
2022-08-03T12:52:22.269Z,46.84
2022-08-03T12:57:21.699Z,47.13
2022-08-03T13:02:27.929Z,46.43
2022-08-03T13:07:27.316Z,46.01
2022-08-03T13:12:27.894Z,46.25
2022-08-03T13:17:31.700Z,46.95
2022-08-03T13:22:33.418Z,47.78
2022-08-03T13:28:04.739Z,47.97
2022-08-03T13:32:53.416Z,48.30
2022-08-03T13:37:52.302Z,49.30
2022-08-03T13:42:51.320Z,49.23
2022-08-03T13:47:50.509Z,49.90
2022-08-03T13:52:53.836Z,50.19
2022-08-03T13:58:04.142Z,49.45
2022-08-03T14:03:13.351Z,49.22
2022-08-03T14:08:16.464Z,49.43
2022-08-03T14:13:17.564Z,49.08
2022-08-03T14:18:27.896Z,49.30
2022-08-03T14:23:38.823Z,49.16
2022-08-03T14:28:39.212Z,49.11
2022-08-03T14:33:44.252Z,48.77
2022-08-03T14:38:47.294Z,48.87
2022-08-03T14:44:00.475Z,49.12
2022-08-03T14:50:38.080Z,48.54
2022-08-03T14:54:24.814Z,47.84
2022-08-03T14:59:23.655Z,47.30
2022-08-03T15:04:22.784Z,46.76
2022-08-03T15:09:23.951Z,46.62
2022-08-03T15:14:32.492Z,46.70
2022-08-03T15:20:01.315Z,46.81
2022-08-03T15:24:51.767Z,46.46
2022-08-03T15:30:07.177Z,46.24
2022-08-03T15:35:10.239Z,46.41
2022-08-03T15:40:11.221Z,46.32
2022-08-03T15:45:12.946Z,46.30
2022-08-03T15:50:21.366Z,45.73
2022-08-03T15:55:23.271Z,45.24
2022-08-03T16:00:33.429Z,44.92
2022-08-03T16:05:35.397Z,44.77
2022-08-03T16:10:34.470Z,44.51
2022-08-03T16:15:39.262Z,44.22
2022-08-03T16:20:38.462Z,43.87
2022-08-03T16:25:42.068Z,43.38
2022-08-03T16:30:44.183Z,42.99
2022-08-03T16:35:43.328Z,42.63
2022-08-03T16:40:42.610Z,42.32
2022-08-03T16:45:43.555Z,41.85
2022-08-03T16:50:43.000Z,41.26
2022-08-03T16:55:48.610Z,40.62
2022-08-03T17:01:10.892Z,40.27
2022-08-03T17:06:22.939Z,39.70
2022-08-03T17:11:47.522Z,39.33
2022-08-03T17:16:52.487Z,38.91
2022-08-03T17:22:15.985Z,38.45
2022-08-03T17:28:50.873Z,38.04
2022-08-03T17:32:57.617Z,37.76
2022-08-03T17:38:04.172Z,37.44
2022-08-03T17:44:17.122Z,37.14
2022-08-03T17:48:28.003Z,36.80
2022-08-03T17:53:33.603Z,36.42
2022-08-03T17:58:43.878Z,35.96
2022-08-03T18:03:57.821Z,35.64
2022-08-03T18:09:05.237Z,35.46
2022-08-03T18:14:33.647Z,35.10
2022-08-03T18:20:02.635Z,34.72
2022-08-03T18:24:58.109Z,34.32
2022-08-03T18:29:58.026Z,33.92
2022-08-03T18:35:00.064Z,33.70
2022-08-03T18:40:00.014Z,33.34
2022-08-03T18:45:14.773Z,33.05
2022-08-03T18:50:28.554Z,32.70
2022-08-03T18:55:32.954Z,32.29
2022-08-03T19:00:54.465Z,32.20
2022-08-03T19:12:13.126Z,31.96
2022-08-03T19:16:51.650Z,31.77
2022-08-03T19:21:56.242Z,31.60
2022-08-03T19:26:57.420Z,31.50
2022-08-03T19:31:59.023Z,31.29
2022-08-03T19:37:00.413Z,31.09
2022-08-03T19:42:18.403Z,30.94
2022-08-03T19:47:31.491Z,30.90
2022-08-03T19:52:36.460Z,30.74
2022-08-03T19:57:37.694Z,30.63
2022-08-03T20:02:37.013Z,30.51
2022-08-03T20:07:38.062Z,30.41
2022-08-03T20:12:39.912Z,30.27
2022-08-03T20:17:56.771Z,30.24
2022-08-03T20:22:59.619Z,30.23
2022-08-03T20:28:08.201Z,30.19
2022-08-03T20:33:18.554Z,30.09
2022-08-03T20:38:20.033Z,30.05
2022-08-03T20:43:26.297Z,29.90
2022-08-03T20:48:27.000Z,29.98
2022-08-03T20:53:57.135Z,30.01
2022-08-03T20:58:50.999Z,29.92
2022-08-03T21:03:52.558Z,29.91
2022-08-03T21:09:03.777Z,29.82
2022-08-03T21:13:10.223Z,32.11
2022-08-03T21:14:06.994Z,29.91
2022-08-03T21:19:06.115Z,29.90
2022-08-03T21:24:07.000Z,29.73
2022-08-03T21:29:05.729Z,29.73
2022-08-03T21:34:05.970Z,29.66
2022-08-03T21:39:05.950Z,29.59
2022-08-03T21:44:06.454Z,29.64
2022-08-03T21:50:05.555Z,29.69
2022-08-03T21:54:28.564Z,29.76
2022-08-03T21:59:28.821Z,29.59
2022-08-03T22:04:51.020Z,29.70
2022-08-03T22:09:50.949Z,29.74
2022-08-03T22:15:00.544Z,29.65
2022-08-03T22:20:00.401Z,29.62
2022-08-03T22:25:00.028Z,29.57
2022-08-03T22:30:00.757Z,29.52
2022-08-03T22:35:00.021Z,29.47
2022-08-03T22:39:58.621Z,29.41
2022-08-03T22:44:57.143Z,29.39
2022-08-03T22:50:31.747Z,29.15
2022-08-03T22:55:18.841Z,28.99
2022-08-03T23:00:23.412Z,28.96
2022-08-03T23:06:00.610Z,28.89
2022-08-03T23:10:47.017Z,28.86
2022-08-03T23:15:48.645Z,28.89
2022-08-03T23:20:50.409Z,28.89
2022-08-03T23:25:50.971Z,28.83
2022-08-03T23:30:51.004Z,28.73
2022-08-03T23:36:28.778Z,28.63
2022-08-03T23:41:20.556Z,28.47
2022-08-03T23:46:19.926Z,28.42
2022-08-03T23:51:24.933Z,28.30
2022-08-03T23:56:25.503Z,28.22
